CPA251 VHHH-EGLL
Flight info
| Callsign | CPA251 |
|---|---|
| Flight time | N/A |
| Altitude | 30100 |
| Route | BEKOL A461 SHL W22 TEPID W24 OSNOV G586 QP B330 ELKAL W179 WLY/K0941S0980 W179 IGNAK/K0941S0950 W179 WFX/K0935S0980 W179 OMBON W195 VIDEK/K0933S0950 W195 LAXAL/K0928S0980 W195 IDOPA W197 ANDIM B215 IBANO G470 AKLAS W192 FKG A368 SALMO/K0902S1040 A368 SARIN/K0900F340 N161 GASBI/N0489F360 N161 LEYLA T916 MATAL DCT REBLO UR317 TBN UM11 CRM UL746 ODERO DCT OPT DCT TEGRI DCT GAZDA/N0484F380 DCT ARSIN DCT PEROL DCT RENKA DCT INBED DCT BOMBI DCT DENUT L608 LOGAN |
| Aircraft | B77W/H-SDE1E2E3FGHIJ2J3J4J5M1RWXY/LB1D1 |
Departure
| Time | 2026-05-07 13:27 |
|---|---|
| Airport | Hong Kong International Airport (VHHH) |
Arrival
| Time | N/A |
|---|---|
| Airport | London Heathrow Airport (EGLL) |
| Time | Latitude | Longitude | Altitude | Speed | Heading |
|---|---|---|---|---|---|
| 2026-05-07 12:43 | 22.31131 | 113.93506 | 37 ft | 0 kts | 71° |
| 2026-05-07 13:11 | 22.31129 | 113.93500 | 35 ft | 4 kts | 71° |
| 2026-05-07 13:12 | 22.31121 | 113.93472 | 35 ft | 4 kts | 71° |
| 2026-05-07 13:12 | 22.31113 | 113.93449 | 34 ft | 3 kts | 71° |
| 2026-05-07 13:12 | 22.31109 | 113.93422 | 37 ft | 4 kts | 101° |
| 2026-05-07 13:12 | 22.31120 | 113.93399 | 34 ft | 4 kts | 146° |
| 2026-05-07 13:13 | 22.31142 | 113.93388 | 33 ft | 4 kts | 161° |
| 2026-05-07 13:13 | 22.31164 | 113.93380 | 36 ft | 1 kts | 161° |
| 2026-05-07 13:16 | 22.31157 | 113.93382 | 36 ft | 5 kts | 161° |
| 2026-05-07 13:16 | 22.31081 | 113.93411 | 37 ft | 16 kts | 161° |
| 2026-05-07 13:16 | 22.30986 | 113.93382 | 37 ft | 16 kts | 232° |
| 2026-05-07 13:17 | 22.30930 | 113.93280 | 37 ft | 16 kts | 242° |
| 2026-05-07 13:17 | 22.30886 | 113.93159 | 37 ft | 20 kts | 251° |
| 2026-05-07 13:17 | 22.30838 | 113.93011 | 37 ft | 21 kts | 251° |
| 2026-05-07 13:17 | 22.30791 | 113.92864 | 37 ft | 21 kts | 251° |
| 2026-05-07 13:18 | 22.30744 | 113.92717 | 37 ft | 21 kts | 251° |
| 2026-05-07 13:18 | 22.30696 | 113.92570 | 37 ft | 21 kts | 250° |
| 2026-05-07 13:18 | 22.30649 | 113.92423 | 37 ft | 21 kts | 251° |
| 2026-05-07 13:18 | 22.30602 | 113.92276 | 37 ft | 21 kts | 251° |
| 2026-05-07 13:19 | 22.30559 | 113.92144 | 37 ft | 17 kts | 251° |
| 2026-05-07 13:19 | 22.30520 | 113.92021 | 37 ft | 17 kts | 251° |
| 2026-05-07 13:19 | 22.30480 | 113.91898 | 37 ft | 17 kts | 251° |
| 2026-05-07 13:19 | 22.30440 | 113.91776 | 37 ft | 17 kts | 251° |
| 2026-05-07 13:20 | 22.30401 | 113.91655 | 37 ft | 17 kts | 251° |
| 2026-05-07 13:20 | 22.30362 | 113.91532 | 37 ft | 17 kts | 251° |
| 2026-05-07 13:20 | 22.30322 | 113.91409 | 37 ft | 17 kts | 251° |
| 2026-05-07 13:20 | 22.30282 | 113.91286 | 37 ft | 17 kts | 251° |
| 2026-05-07 13:21 | 22.30243 | 113.91164 | 37 ft | 17 kts | 250° |
| 2026-05-07 13:21 | 22.30202 | 113.91041 | 37 ft | 18 kts | 250° |
| 2026-05-07 13:21 | 22.30155 | 113.90895 | 37 ft | 22 kts | 251° |
| 2026-05-07 13:21 | 22.30105 | 113.90737 | 37 ft | 22 kts | 251° |
| 2026-05-07 13:22 | 22.30054 | 113.90581 | 37 ft | 22 kts | 251° |
| 2026-05-07 13:22 | 22.30004 | 113.90423 | 37 ft | 22 kts | 251° |
| 2026-05-07 13:22 | 22.29952 | 113.90265 | 37 ft | 22 kts | 251° |
| 2026-05-07 13:22 | 22.29902 | 113.90110 | 37 ft | 21 kts | 251° |
| 2026-05-07 13:23 | 22.29855 | 113.89962 | 37 ft | 21 kts | 250° |
| 2026-05-07 13:23 | 22.29813 | 113.89834 | 37 ft | 16 kts | 251° |
| 2026-05-07 13:23 | 22.29771 | 113.89771 | 37 ft | 5 kts | 200° |
| 2026-05-07 13:23 | 22.29754 | 113.89769 | 37 ft | 0 kts | 180° |
| 2026-05-07 13:24 | 22.29721 | 113.89776 | 37 ft | 12 kts | 165° |
| 2026-05-07 13:25 | 22.29642 | 113.89811 | 34 ft | 9 kts | 135° |
| 2026-05-07 13:25 | 22.29638 | 113.89860 | 34 ft | 7 kts | 72° |
| 2026-05-07 13:25 | 22.29644 | 113.89880 | 34 ft | 0 kts | 71° |
| 2026-05-07 13:26 | 22.29649 | 113.89896 | 35 ft | 11 kts | 71° |
| 2026-05-07 13:26 | 22.29750 | 113.90208 | 35 ft | 81 kts | 71° |
| 2026-05-07 13:26 | 22.30018 | 113.91036 | 36 ft | 150 kts | 71° |
| 2026-05-07 13:27 | 22.30428 | 113.92298 | 145 ft | 193 kts | 71° |
| 2026-05-07 13:27 | 22.30864 | 113.93611 | 893 ft | 188 kts | 71° |
| 2026-05-07 13:27 | 22.31305 | 113.94979 | 1498 ft | 196 kts | 73° |
| 2026-05-07 13:27 | 22.31763 | 113.96423 | 1807 ft | 213 kts | 73° |
| 2026-05-07 13:28 | 22.32264 | 113.97992 | 2003 ft | 227 kts | 72° |
| 2026-05-07 13:28 | 22.32793 | 113.99646 | 2329 ft | 236 kts | 72° |
| 2026-05-07 13:28 | 22.33351 | 114.01386 | 2645 ft | 252 kts | 72° |
| 2026-05-07 13:28 | 22.33719 | 114.02584 | 2948 ft | 254 kts | 77° |
| 2026-05-07 13:29 | 22.33662 | 114.05112 | 3589 ft | 260 kts | 110° |
| 2026-05-07 13:29 | 22.32769 | 114.06832 | 4009 ft | 269 kts | 133° |
| 2026-05-07 13:29 | 22.31851 | 114.07746 | 4300 ft | 274 kts | 146° |
| 2026-05-07 13:29 | 22.30104 | 114.08625 | 4767 ft | 282 kts | 167° |
| 2026-05-07 13:30 | 22.28138 | 114.08784 | 5288 ft | 284 kts | 185° |
| 2026-05-07 13:30 | 22.26141 | 114.08677 | 5849 ft | 290 kts | 182° |
| 2026-05-07 13:30 | 22.24112 | 114.08662 | 6528 ft | 291 kts | 181° |
| 2026-05-07 13:30 | 22.22103 | 114.08655 | 7174 ft | 292 kts | 182° |
| 2026-05-07 13:31 | 22.20059 | 114.08652 | 7777 ft | 294 kts | 178° |
| 2026-05-07 13:31 | 22.18062 | 114.09207 | 8184 ft | 303 kts | 150° |
| 2026-05-07 13:31 | 22.16516 | 114.10760 | 8722 ft | 309 kts | 122° |
| 2026-05-07 13:31 | 22.15778 | 114.12921 | 9254 ft | 313 kts | 97° |
| 2026-05-07 13:32 | 22.15620 | 114.15279 | 9726 ft | 318 kts | 94° |
| 2026-05-07 13:32 | 22.15496 | 114.17686 | 10220 ft | 322 kts | 94° |
| 2026-05-07 13:32 | 22.15361 | 114.20112 | 10748 ft | 327 kts | 94° |
| 2026-05-07 13:32 | 22.15212 | 114.22628 | 10892 ft | 346 kts | 94° |
| 2026-05-07 13:33 | 22.15083 | 114.25281 | 11031 ft | 361 kts | 89° |
| 2026-05-07 13:33 | 22.15447 | 114.27988 | 11153 ft | 378 kts | 76° |
| 2026-05-07 13:33 | 22.16144 | 114.30787 | 11396 ft | 393 kts | 74° |
| 2026-05-07 13:33 | 22.16853 | 114.33675 | 11806 ft | 402 kts | 76° |
| 2026-05-07 13:34 | 22.17602 | 114.36585 | 12247 ft | 403 kts | 68° |
| 2026-05-07 13:34 | 22.21341 | 114.40987 | 13253 ft | 405 kts | 25° |
| 2026-05-07 13:34 | 22.23962 | 114.41963 | 13864 ft | 403 kts | 8° |
| 2026-05-07 13:35 | 22.26758 | 114.42128 | 14324 ft | 401 kts | 350° |
| 2026-05-07 13:35 | 22.29502 | 114.41609 | 14820 ft | 397 kts | 347° |
| 2026-05-07 13:35 | 22.32173 | 114.41044 | 15804 ft | 385 kts | 346° |
| 2026-05-07 13:35 | 22.34740 | 114.40514 | 16702 ft | 377 kts | 346° |
| 2026-05-07 13:36 | 22.37327 | 114.39995 | 17324 ft | 378 kts | 347° |
| 2026-05-07 13:36 | 22.39931 | 114.39488 | 17791 ft | 382 kts | 347° |
| 2026-05-07 13:36 | 22.42574 | 114.38984 | 18241 ft | 386 kts | 347° |
| 2026-05-07 13:36 | 22.45204 | 114.38479 | 18677 ft | 385 kts | 345° |
| 2026-05-07 13:37 | 22.47695 | 114.37475 | 19012 ft | 381 kts | 324° |
| 2026-05-07 13:37 | 22.49646 | 114.35571 | 19398 ft | 378 kts | 305° |
| 2026-05-07 13:37 | 22.50997 | 114.33133 | 19835 ft | 378 kts | 291° |
| 2026-05-07 13:37 | 22.51698 | 114.30428 | 20261 ft | 379 kts | 279° |
| 2026-05-07 13:38 | 22.52103 | 114.27604 | 20701 ft | 381 kts | 278° |
| 2026-05-07 13:38 | 22.52501 | 114.24748 | 21118 ft | 384 kts | 279° |
| 2026-05-07 13:38 | 22.52934 | 114.21874 | 21566 ft | 387 kts | 279° |
| 2026-05-07 13:38 | 22.53383 | 114.19028 | 22012 ft | 389 kts | 280° |
| 2026-05-07 13:39 | 22.54008 | 114.16184 | 22355 ft | 390 kts | 293° |
| 2026-05-07 13:39 | 22.55451 | 114.13672 | 22635 ft | 397 kts | 310° |
| 2026-05-07 13:39 | 22.57498 | 114.11655 | 23048 ft | 402 kts | 324° |
| 2026-05-07 13:39 | 22.59960 | 114.10205 | 23465 ft | 404 kts | 332° |
| 2026-05-07 13:40 | 22.62539 | 114.08916 | 23793 ft | 408 kts | 333° |
| 2026-05-07 13:40 | 22.65106 | 114.07663 | 24124 ft | 411 kts | 333° |
| 2026-05-07 13:40 | 22.67725 | 114.06374 | 24484 ft | 413 kts | 333° |
| 2026-05-07 13:40 | 22.70357 | 114.05060 | 24810 ft | 416 kts | 333° |
| 2026-05-07 13:41 | 22.72987 | 114.03729 | 25158 ft | 418 kts | 332° |
| 2026-05-07 13:41 | 22.75592 | 114.02398 | 25499 ft | 420 kts | 332° |
| 2026-05-07 13:41 | 22.78241 | 114.01039 | 25837 ft | 422 kts | 332° |
| 2026-05-07 13:41 | 22.80899 | 113.99673 | 26258 ft | 422 kts | 332° |
| 2026-05-07 13:42 | 22.83547 | 113.98313 | 26731 ft | 421 kts | 332° |
| 2026-05-07 13:42 | 22.86199 | 113.96950 | 27061 ft | 423 kts | 332° |
| 2026-05-07 13:42 | 22.88882 | 113.95570 | 27335 ft | 427 kts | 332° |
| 2026-05-07 13:42 | 22.91504 | 113.94218 | 27643 ft | 429 kts | 332° |
| 2026-05-07 13:43 | 22.93843 | 113.93002 | 27915 ft | 431 kts | 332° |
| 2026-05-07 13:43 | 22.96201 | 113.91774 | 28194 ft | 432 kts | 332° |
| 2026-05-07 13:43 | 22.98920 | 113.90356 | 28533 ft | 434 kts | 332° |
| 2026-05-07 13:43 | 23.01579 | 113.88971 | 28833 ft | 436 kts | 332° |
| 2026-05-07 13:44 | 23.04330 | 113.87538 | 29132 ft | 438 kts | 332° |
| 2026-05-07 13:44 | 23.07009 | 113.86037 | 29417 ft | 439 kts | 327° |
| 2026-05-07 13:44 | 23.09568 | 113.84208 | 29713 ft | 440 kts | 322° |
| 2026-05-07 13:44 | 23.11987 | 113.82152 | 29858 ft | 444 kts | 317° |
| 2026-05-07 13:45 | 23.14244 | 113.79842 | 29941 ft | 446 kts | 315° |
| 2026-05-07 13:45 | 23.18718 | 113.75101 | 29934 ft | 456 kts | 315° |
| 2026-05-07 13:46 | 23.23324 | 113.70236 | 29934 ft | 465 kts | 315° |
| 2026-05-07 13:46 | 23.28025 | 113.65295 | 29933 ft | 473 kts | 315° |
| 2026-05-07 13:47 | 23.32771 | 113.60316 | 29933 ft | 479 kts | 315° |
| 2026-05-07 13:47 | 23.46116 | 113.46288 | 29919 ft | 484 kts | 315° |
| 2026-05-07 13:48 | 23.71723 | 113.12549 | 29857 ft | 473 kts | 293° |
| 2026-05-07 13:48 | 23.76609 | 113.01147 | 29848 ft | 469 kts | 308° |
| 2026-05-07 13:48 | 23.79953 | 112.97788 | 29905 ft | 476 kts | 324° |
| 2026-05-07 13:48 | 23.89613 | 112.93846 | 29994 ft | 493 kts | 342° |
| 2026-05-07 13:49 | 23.93780 | 112.92651 | 29939 ft | 492 kts | 341° |
| 2026-05-07 13:49 | 24.41521 | 112.76777 | 29942 ft | 488 kts | 337° |
| 2026-05-07 13:49 | 24.45209 | 112.74589 | 29971 ft | 477 kts | 316° |
| 2026-05-07 13:50 | 24.49811 | 112.66443 | 30021 ft | 474 kts | 284° |
| 2026-05-07 13:50 | 24.51437 | 112.51280 | 29996 ft | 482 kts | 274° |
| 2026-05-07 13:51 | 24.56350 | 111.97658 | 29851 ft | 470 kts | 276° |
| 2026-05-07 13:51 | 24.59225 | 111.66422 | 30024 ft | 482 kts | 276° |
| 2026-05-07 13:52 | 24.61992 | 111.35828 | 29880 ft | 465 kts | 276° |
| 2026-05-07 13:52 | 24.62413 | 111.31083 | 29983 ft | 467 kts | 276° |
| 2026-05-07 13:52 | 24.63485 | 111.18827 | 30018 ft | 477 kts | 276° |
| 2026-05-07 13:53 | 24.64570 | 111.06160 | 29981 ft | 474 kts | 276° |
| 2026-05-07 13:53 | 24.66093 | 110.88486 | 29918 ft | 459 kts | 276° |
| 2026-05-07 13:53 | 24.68001 | 110.78128 | 29934 ft | 467 kts | 297° |
| 2026-05-07 13:53 | 24.70671 | 110.73651 | 29924 ft | 473 kts | 311° |
| 2026-05-07 13:54 | 24.73220 | 110.70916 | 30004 ft | 474 kts | 315° |
| 2026-05-07 13:54 | 24.86229 | 110.57465 | 30009 ft | 481 kts | 314° |
| 2026-05-07 13:55 | 25.13759 | 110.28338 | 29924 ft | 471 kts | 314° |
| 2026-05-07 13:55 | 25.46345 | 109.94112 | 30099 ft | 470 kts | 314° |
| 2026-05-07 13:56 | 25.57974 | 109.81858 | 30106 ft | 477 kts | 314° |
| 2026-05-07 13:56 | 25.76515 | 109.61252 | 30078 ft | 473 kts | 301° |
| 2026-05-07 13:56 | 25.79381 | 109.54948 | 30028 ft | 466 kts | 289° |
| 2026-05-07 13:57 | 25.86469 | 109.27638 | 30033 ft | 460 kts | 285° |
| 2026-05-07 13:57 | 25.95122 | 108.94643 | 30122 ft | 471 kts | 285° |
| 2026-05-07 13:58 | 26.00836 | 108.72968 | 30142 ft | 467 kts | 285° |
| 2026-05-07 13:58 | 26.03492 | 108.63007 | 30183 ft | 458 kts | 285° |
| 2026-05-07 13:59 | 26.05819 | 108.54295 | 30239 ft | 463 kts | 285° |
| 2026-05-07 13:59 | 26.07934 | 108.46350 | 30190 ft | 468 kts | 285° |
| 2026-05-07 14:00 | 26.14091 | 108.29372 | 30078 ft | 470 kts | 294° |
| 2026-05-07 14:00 | 26.26255 | 108.01354 | 30112 ft | 464 kts | 293° |
| 2026-05-07 14:01 | 26.40810 | 107.67304 | 30762 ft | 459 kts | 292° |
| 2026-05-07 14:01 | 26.42163 | 107.64123 | 30930 ft | 459 kts | 292° |
| 2026-05-07 14:01 | 26.43534 | 107.60899 | 31155 ft | 458 kts | 292° |
| 2026-05-07 14:01 | 26.44877 | 107.57790 | 31427 ft | 457 kts | 295° |
| 2026-05-07 14:02 | 26.46515 | 107.54736 | 31670 ft | 459 kts | 301° |
| 2026-05-07 14:02 | 26.48408 | 107.51863 | 31956 ft | 460 kts | 304° |
| 2026-05-07 14:02 | 26.50453 | 107.49164 | 32073 ft | 463 kts | 309° |
| 2026-05-07 14:02 | 26.52867 | 107.46427 | 32186 ft | 464 kts | 310° |
| 2026-05-07 14:03 | 26.63208 | 107.34912 | 32283 ft | 469 kts | 310° |
| 2026-05-07 14:03 | 26.68816 | 107.28591 | 32243 ft | 464 kts | 310° |
| 2026-05-07 14:04 | 26.80347 | 107.15552 | 32156 ft | 448 kts | 310° |
| 2026-05-07 14:04 | 26.98386 | 106.95064 | 32254 ft | 466 kts | 310° |
| 2026-05-07 14:05 | 27.05539 | 106.86916 | 32257 ft | 468 kts | 309° |
| 2026-05-07 14:05 | 27.10041 | 106.81792 | 32162 ft | 458 kts | 309° |
| 2026-05-07 14:06 | 27.14498 | 106.76709 | 32156 ft | 455 kts | 309° |
| 2026-05-07 14:06 | 27.36284 | 106.51737 | 32165 ft | 455 kts | 309° |
| 2026-05-07 14:07 | 27.71716 | 106.10817 | 32123 ft | 457 kts | 309° |
| 2026-05-07 14:07 | 27.94310 | 105.84503 | 32034 ft | 461 kts | 309° |
| 2026-05-07 14:08 | 27.99881 | 105.77984 | 32087 ft | 462 kts | 309° |
| 2026-05-07 14:08 | 28.14814 | 105.60479 | 32231 ft | 464 kts | 308° |
| 2026-05-07 14:09 | 28.22581 | 105.51330 | 32200 ft | 466 kts | 308° |
| 2026-05-07 14:09 | 28.28449 | 105.44419 | 32239 ft | 466 kts | 308° |
| 2026-05-07 14:10 | 28.44369 | 105.25606 | 32136 ft | 462 kts | 308° |
| 2026-05-07 14:10 | 28.79555 | 104.83679 | 32056 ft | 457 kts | 308° |
| 2026-05-07 14:10 | 28.97205 | 104.62477 | 32160 ft | 464 kts | 308° |
| 2026-05-07 14:11 | 29.02908 | 104.55606 | 32159 ft | 468 kts | 308° |
| 2026-05-07 14:11 | 29.09909 | 104.47157 | 32144 ft | 465 kts | 308° |
| 2026-05-07 14:11 | 29.15139 | 104.40834 | 32033 ft | 459 kts | 308° |
| 2026-05-07 14:12 | 29.18539 | 104.36715 | 32110 ft | 454 kts | 307° |
| 2026-05-07 14:12 | 29.25764 | 104.28518 | 32083 ft | 464 kts | 322° |
| 2026-05-07 14:12 | 29.29693 | 104.26495 | 32073 ft | 484 kts | 337° |
| 2026-05-07 14:12 | 29.34768 | 104.25669 | 32129 ft | 502 kts | 351° |
| 2026-05-07 14:13 | 29.40654 | 104.25545 | 32118 ft | 510 kts | 352° |
| 2026-05-07 14:13 | 29.75066 | 104.24807 | 32134 ft | 508 kts | 351° |
| 2026-05-07 14:14 | 30.31815 | 104.23068 | 32164 ft | 509 kts | 351° |
| 2026-05-07 14:14 | 30.83749 | 104.21482 | 32095 ft | 508 kts | 352° |
| 2026-05-07 14:15 | 30.99509 | 104.21018 | 32078 ft | 508 kts | 352° |
| 2026-05-07 14:15 | 31.24798 | 104.20246 | 32137 ft | 507 kts | 352° |
| 2026-05-07 14:15 | 31.50012 | 104.19466 | 32245 ft | 506 kts | 352° |
| 2026-05-07 14:16 | 31.56257 | 104.19257 | 32192 ft | 510 kts | 352° |
| 2026-05-07 14:16 | 31.64297 | 104.19027 | 32162 ft | 508 kts | 352° |
| 2026-05-07 14:17 | 31.76042 | 104.18671 | 32208 ft | 504 kts | 352° |
| 2026-05-07 14:17 | 32.17897 | 104.17335 | 32297 ft | 504 kts | 353° |
| 2026-05-07 14:18 | 32.41704 | 104.16597 | 32202 ft | 503 kts | 353° |
| 2026-05-07 14:18 | 32.48855 | 104.16358 | 32280 ft | 503 kts | 354° |
| 2026-05-07 14:19 | 32.60647 | 104.16006 | 32334 ft | 514 kts | 353° |
| 2026-05-07 14:19 | 33.13227 | 104.14344 | 32316 ft | 514 kts | 352° |
| 2026-05-07 14:20 | 33.35651 | 104.13616 | 32231 ft | 504 kts | 352° |
| 2026-05-07 14:20 | 33.51508 | 104.13104 | 32218 ft | 503 kts | 352° |
| 2026-05-07 14:21 | 33.71479 | 104.12447 | 32206 ft | 502 kts | 353° |
| 2026-05-07 14:21 | 33.81055 | 104.12137 | 32327 ft | 499 kts | 352° |
| 2026-05-07 14:22 | 34.01699 | 104.11468 | 32352 ft | 504 kts | 353° |
| 2026-05-07 14:22 | 34.58084 | 104.09615 | 32289 ft | 504 kts | 352° |
| 2026-05-07 14:23 | 34.88593 | 104.08608 | 32259 ft | 486 kts | 352° |
| 2026-05-07 14:23 | 35.04677 | 104.08051 | 32328 ft | 504 kts | 352° |
| 2026-05-07 14:24 | 35.24096 | 104.07412 | 32321 ft | 496 kts | 353° |
| 2026-05-07 14:24 | 35.40059 | 104.06872 | 32356 ft | 493 kts | 352° |
| 2026-05-07 14:25 | 35.56759 | 104.06293 | 32346 ft | 499 kts | 353° |
| 2026-05-07 14:25 | 35.69665 | 104.05877 | 32270 ft | 486 kts | 353° |
| 2026-05-07 14:25 | 35.90551 | 104.05148 | 32448 ft | 491 kts | 353° |
| 2026-05-07 14:26 | 35.93995 | 104.05030 | 32372 ft | 494 kts | 353° |
| 2026-05-07 14:26 | 36.13127 | 104.04386 | 32338 ft | 485 kts | 353° |
| 2026-05-07 14:27 | 36.57496 | 104.02709 | 32258 ft | 479 kts | 344° |
| 2026-05-07 14:27 | 36.63998 | 103.98285 | 32311 ft | 459 kts | 310° |
| 2026-05-07 14:27 | 36.67267 | 103.92851 | 32248 ft | 460 kts | 301° |
| 2026-05-07 14:28 | 36.80042 | 103.68947 | 32275 ft | 466 kts | 301° |
| 2026-05-07 14:28 | 36.96355 | 103.38949 | 32321 ft | 452 kts | 301° |
| 2026-05-07 14:29 | 37.23616 | 102.88041 | 32399 ft | 450 kts | 300° |
| 2026-05-07 14:29 | 37.36111 | 102.64448 | 32344 ft | 461 kts | 301° |
| 2026-05-07 14:30 | 37.52825 | 102.32656 | 32252 ft | 449 kts | 300° |
| 2026-05-07 14:30 | 37.66384 | 102.06601 | 32411 ft | 465 kts | 300° |
| 2026-05-07 14:31 | 37.73876 | 101.92153 | 32292 ft | 441 kts | 300° |
| 2026-05-07 14:31 | 37.80647 | 101.78997 | 32408 ft | 453 kts | 300° |
| 2026-05-07 14:31 | 37.82376 | 101.75628 | 32336 ft | 458 kts | 300° |
| 2026-05-07 14:32 | 38.02797 | 101.35665 | 32207 ft | 450 kts | 299° |
| 2026-05-07 14:32 | 38.29702 | 100.82235 | 32183 ft | 446 kts | 299° |
| 2026-05-07 14:33 | 38.41552 | 100.58418 | 32168 ft | 446 kts | 299° |
| 2026-05-07 14:33 | 38.46203 | 100.49016 | 32132 ft | 453 kts | 299° |
| 2026-05-07 14:34 | 38.62694 | 100.15486 | 32271 ft | 461 kts | 299° |
| 2026-05-07 14:34 | 38.74076 | 99.92124 | 32184 ft | 455 kts | 299° |
| 2026-05-07 14:35 | 38.82424 | 99.74917 | 32100 ft | 450 kts | 299° |
| 2026-05-07 14:35 | 38.86821 | 99.65792 | 32157 ft | 460 kts | 299° |
| 2026-05-07 14:36 | 39.03265 | 99.31514 | 32207 ft | 462 kts | 298° |
| 2026-05-07 14:36 | 39.24605 | 98.86393 | 32152 ft | 467 kts | 297° |
| 2026-05-07 14:37 | 39.30632 | 98.73532 | 32213 ft | 455 kts | 297° |
| 2026-05-07 14:37 | 39.69157 | 97.90122 | 32110 ft | 458 kts | 296° |
| 2026-05-07 14:38 | 39.95002 | 97.32879 | 32096 ft | 458 kts | 296° |
| 2026-05-07 14:38 | 40.20507 | 96.75355 | 32049 ft | 457 kts | 296° |
| 2026-05-07 14:39 | 40.45652 | 96.17532 | 32030 ft | 455 kts | 295° |
| 2026-05-07 14:39 | 40.70281 | 95.59832 | 32008 ft | 455 kts | 295° |
| 2026-05-07 14:40 | 40.94897 | 95.01046 | 32059 ft | 458 kts | 295° |
| 2026-05-07 14:40 | 41.19509 | 94.41020 | 32060 ft | 467 kts | 296° |
| 2026-05-07 14:41 | 41.44284 | 93.79484 | 32128 ft | 485 kts | 298° |
| 2026-05-07 14:41 | 41.65277 | 93.26254 | 31976 ft | 489 kts | 298° |
| 2026-05-07 14:42 | 41.83434 | 92.79401 | 32032 ft | 475 kts | 298° |
| 2026-05-07 14:42 | 41.95672 | 92.47394 | 32120 ft | 486 kts | 298° |
| 2026-05-07 14:42 | 42.08055 | 92.14638 | 32036 ft | 489 kts | 298° |
| 2026-05-07 14:43 | 42.20642 | 91.80970 | 31963 ft | 474 kts | 298° |
| 2026-05-07 14:43 | 42.36544 | 91.52208 | 32043 ft | 482 kts | 310° |
| 2026-05-07 14:44 | 42.61628 | 91.10254 | 31907 ft | 478 kts | 310° |
| 2026-05-07 14:44 | 42.70779 | 90.94810 | 31957 ft | 471 kts | 310° |
| 2026-05-07 14:45 | 43.03727 | 90.38516 | 32027 ft | 476 kts | 310° |
| 2026-05-07 14:45 | 43.36398 | 89.81600 | 32099 ft | 478 kts | 310° |
| 2026-05-07 14:46 | 43.69201 | 89.23338 | 32102 ft | 479 kts | 309° |
| 2026-05-07 14:46 | 43.97756 | 88.71647 | 32079 ft | 479 kts | 309° |
| 2026-05-07 14:47 | 44.03381 | 88.61348 | 32810 ft | 478 kts | 309° |
| 2026-05-07 14:47 | 44.05388 | 88.57665 | 33337 ft | 472 kts | 309° |
| 2026-05-07 14:47 | 44.07336 | 88.54084 | 33822 ft | 467 kts | 309° |
| 2026-05-07 14:47 | 44.09292 | 88.50486 | 34081 ft | 467 kts | 309° |
| 2026-05-07 14:48 | 44.14119 | 88.41596 | 33975 ft | 467 kts | 309° |
| 2026-05-07 14:48 | 44.40745 | 87.92056 | 33969 ft | 456 kts | 309° |
| 2026-05-07 14:49 | 44.60920 | 87.53930 | 34032 ft | 465 kts | 309° |
| 2026-05-07 14:49 | 44.74261 | 87.28432 | 33894 ft | 460 kts | 309° |
| 2026-05-07 14:49 | 44.89136 | 86.99748 | 33856 ft | 448 kts | 308° |
| 2026-05-07 14:50 | 44.91522 | 86.95118 | 33958 ft | 448 kts | 308° |
| 2026-05-07 14:50 | 44.96706 | 86.85043 | 33989 ft | 458 kts | 308° |
| 2026-05-07 14:50 | 45.04311 | 86.70185 | 34015 ft | 450 kts | 308° |
| 2026-05-07 14:51 | 45.14680 | 86.49809 | 33844 ft | 447 kts | 308° |
| 2026-05-07 14:51 | 45.20523 | 86.38256 | 33887 ft | 447 kts | 308° |
| 2026-05-07 14:52 | 45.39310 | 86.00840 | 33952 ft | 456 kts | 307° |
| 2026-05-07 14:52 | 45.68636 | 85.41346 | 33872 ft | 454 kts | 306° |
| 2026-05-07 14:53 | 45.88520 | 85.00310 | 33899 ft | 444 kts | 306° |
| 2026-05-07 14:53 | 46.02675 | 84.70728 | 34015 ft | 450 kts | 305° |
| 2026-05-07 14:53 | 46.09595 | 84.56161 | 34054 ft | 454 kts | 305° |
| 2026-05-07 14:54 | 46.24422 | 84.24678 | 33947 ft | 442 kts | 304° |
| 2026-05-07 14:54 | 46.34204 | 84.03686 | 34004 ft | 439 kts | 304° |
| 2026-05-07 14:55 | 46.41826 | 83.87269 | 34090 ft | 454 kts | 304° |
| 2026-05-07 14:55 | 46.44059 | 83.82429 | 34039 ft | 459 kts | 303° |
| 2026-05-07 14:55 | 46.56426 | 83.55447 | 33886 ft | 441 kts | 303° |
| 2026-05-07 14:56 | 46.62375 | 83.42394 | 33933 ft | 454 kts | 302° |
| 2026-05-07 14:56 | 46.69945 | 83.25688 | 34079 ft | 463 kts | 302° |
| 2026-05-07 14:56 | 46.76900 | 83.10255 | 33926 ft | 447 kts | 302° |
| 2026-05-07 14:57 | 46.85144 | 82.91256 | 33879 ft | 431 kts | 293° |
| 2026-05-07 14:57 | 46.86265 | 82.87062 | 33957 ft | 434 kts | 288° |
| 2026-05-07 14:57 | 46.88277 | 82.73033 | 34052 ft | 445 kts | 278° |
| 2026-05-07 14:57 | 46.89283 | 82.62255 | 34084 ft | 451 kts | 278° |
| 2026-05-07 14:58 | 46.91428 | 82.40421 | 34037 ft | 439 kts | 278° |
| 2026-05-07 14:58 | 46.94872 | 82.05480 | 33910 ft | 432 kts | 278° |
| 2026-05-07 14:58 | 46.98031 | 81.71917 | 34007 ft | 443 kts | 278° |
| 2026-05-07 14:59 | 47.00651 | 81.43078 | 34016 ft | 456 kts | 278° |
| 2026-05-07 14:59 | 47.05956 | 80.81805 | 33892 ft | 443 kts | 278° |
| 2026-05-07 15:00 | 47.11841 | 80.09359 | 34050 ft | 459 kts | 278° |
| 2026-05-07 15:00 | 47.13055 | 79.93572 | 33972 ft | 455 kts | 277° |
| 2026-05-07 15:01 | 47.15733 | 79.58496 | 33867 ft | 442 kts | 277° |
| 2026-05-07 15:01 | 47.18324 | 79.22994 | 33976 ft | 446 kts | 277° |
| 2026-05-07 15:01 | 47.20499 | 78.91821 | 34054 ft | 459 kts | 276° |
| 2026-05-07 15:01 | 47.21235 | 78.80821 | 33996 ft | 464 kts | 276° |
| 2026-05-07 15:02 | 47.25864 | 78.08254 | 33861 ft | 452 kts | 275° |
| 2026-05-07 15:02 | 47.27128 | 77.86964 | 34025 ft | 446 kts | 275° |
| 2026-05-07 15:03 | 47.29235 | 77.50061 | 34067 ft | 454 kts | 275° |
| 2026-05-07 15:03 | 47.29857 | 77.38712 | 34047 ft | 458 kts | 275° |
| 2026-05-07 15:04 | 47.31622 | 77.05694 | 33960 ft | 456 kts | 276° |
| 2026-05-07 15:04 | 47.38795 | 76.33605 | 33988 ft | 444 kts | 277° |
| 2026-05-07 15:05 | 47.43263 | 75.86129 | 34085 ft | 456 kts | 276° |
| 2026-05-07 15:05 | 47.44518 | 75.72307 | 34053 ft | 457 kts | 276° |
| 2026-05-07 15:06 | 47.46314 | 75.52326 | 34078 ft | 456 kts | 276° |
| 2026-05-07 15:06 | 47.48913 | 75.22786 | 34048 ft | 451 kts | 275° |
| 2026-05-07 15:07 | 47.54963 | 74.49834 | 33984 ft | 444 kts | 275° |
| 2026-05-07 15:07 | 47.60570 | 73.76062 | 34073 ft | 462 kts | 276° |
| 2026-05-07 15:08 | 47.63307 | 73.38163 | 33969 ft | 458 kts | 276° |
| 2026-05-07 15:08 | 47.65849 | 73.00994 | 33907 ft | 447 kts | 276° |
| 2026-05-07 15:08 | 47.70440 | 72.28437 | 34046 ft | 442 kts | 275° |
| 2026-05-07 15:09 | 47.73342 | 71.78063 | 34033 ft | 444 kts | 275° |
| 2026-05-07 15:09 | 47.74785 | 71.41794 | 33903 ft | 433 kts | 274° |
| 2026-05-07 15:09 | 47.76147 | 71.06197 | 33938 ft | 425 kts | 272° |
| 2026-05-07 15:10 | 47.78440 | 70.36857 | 34027 ft | 436 kts | 271° |
| 2026-05-07 15:10 | 47.80422 | 69.64318 | 33840 ft | 435 kts | 270° |
| 2026-05-07 15:11 | 47.81907 | 68.92765 | 33933 ft | 434 kts | 269° |
| 2026-05-07 15:11 | 47.78404 | 68.41468 | 34015 ft | 441 kts | 260° |
| 2026-05-07 15:12 | 47.77486 | 68.31661 | 33944 ft | 427 kts | 259° |
| 2026-05-07 15:12 | 47.76356 | 68.19765 | 33845 ft | 421 kts | 259° |
| 2026-05-07 15:12 | 47.74800 | 68.03690 | 33923 ft | 435 kts | 259° |
| 2026-05-07 15:12 | 47.73213 | 67.87436 | 33956 ft | 441 kts | 259° |
| 2026-05-07 15:13 | 47.72420 | 67.79402 | 33927 ft | 428 kts | 259° |
| 2026-05-07 15:13 | 47.70625 | 67.65669 | 33857 ft | 417 kts | 256° |
| 2026-05-07 15:13 | 47.66653 | 67.39607 | 33991 ft | 433 kts | 256° |
| 2026-05-07 15:13 | 47.65478 | 67.31768 | 33945 ft | 435 kts | 256° |
| 2026-05-07 15:14 | 47.63626 | 67.19462 | 33873 ft | 423 kts | 255° |
| 2026-05-07 15:14 | 47.61558 | 67.05855 | 33865 ft | 419 kts | 255° |
| 2026-05-07 15:14 | 47.57616 | 66.80436 | 34017 ft | 434 kts | 255° |
| 2026-05-07 15:14 | 47.56721 | 66.74690 | 33971 ft | 433 kts | 254° |
| 2026-05-07 15:15 | 47.54553 | 66.61269 | 33985 ft | 423 kts | 253° |
| 2026-05-07 15:15 | 47.48948 | 66.27536 | 33944 ft | 417 kts | 253° |
| 2026-05-07 15:16 | 47.37720 | 65.61127 | 33991 ft | 434 kts | 253° |
| 2026-05-07 15:16 | 47.29417 | 65.12048 | 33894 ft | 416 kts | 251° |
| 2026-05-07 15:17 | 47.20067 | 64.58249 | 33971 ft | 431 kts | 251° |
| 2026-05-07 15:17 | 47.16016 | 64.35397 | 33863 ft | 438 kts | 251° |
| 2026-05-07 15:17 | 47.09782 | 64.00671 | 33857 ft | 437 kts | 251° |
| 2026-05-07 15:18 | 47.01764 | 63.57018 | 33825 ft | 431 kts | 251° |
| 2026-05-07 15:18 | 46.96215 | 63.27411 | 33954 ft | 450 kts | 251° |
| 2026-05-07 15:18 | 46.91947 | 63.04913 | 33943 ft | 453 kts | 251° |
| 2026-05-07 15:19 | 46.90509 | 62.97384 | 33885 ft | 439 kts | 251° |
| 2026-05-07 15:19 | 46.88600 | 62.87414 | 33879 ft | 429 kts | 250° |
| 2026-05-07 15:19 | 46.84194 | 62.64771 | 33993 ft | 453 kts | 250° |
| 2026-05-07 15:20 | 46.81106 | 62.48959 | 33878 ft | 445 kts | 250° |
| 2026-05-07 15:20 | 46.75819 | 62.22302 | 33863 ft | 445 kts | 249° |
| 2026-05-07 15:21 | 46.72588 | 62.06260 | 33965 ft | 454 kts | 250° |
| 2026-05-07 15:21 | 46.71442 | 62.00539 | 33881 ft | 445 kts | 250° |
| 2026-05-07 15:21 | 46.68528 | 61.86043 | 33801 ft | 429 kts | 249° |
| 2026-05-07 15:21 | 46.67414 | 61.80571 | 33872 ft | 433 kts | 249° |
| 2026-05-07 15:22 | 46.64642 | 61.67100 | 33979 ft | 445 kts | 250° |
| 2026-05-07 15:22 | 46.63390 | 61.60999 | 33892 ft | 447 kts | 250° |
| 2026-05-07 15:22 | 46.53943 | 61.15520 | 33844 ft | 442 kts | 249° |
| 2026-05-07 15:23 | 46.39410 | 60.47592 | 33903 ft | 439 kts | 249° |
| 2026-05-07 15:23 | 46.24621 | 59.80659 | 33930 ft | 439 kts | 249° |
| 2026-05-07 15:24 | 46.09507 | 59.14795 | 33957 ft | 442 kts | 249° |
| 2026-05-07 15:24 | 45.93568 | 58.47460 | 33942 ft | 444 kts | 248° |
| 2026-05-07 15:25 | 45.77313 | 57.80844 | 33929 ft | 444 kts | 248° |
| 2026-05-07 15:25 | 45.60939 | 57.15623 | 33935 ft | 442 kts | 248° |
| 2026-05-07 15:26 | 45.43993 | 56.49960 | 33948 ft | 442 kts | 248° |
| 2026-05-07 15:26 | 45.26567 | 55.84346 | 33951 ft | 444 kts | 248° |
| 2026-05-07 15:27 | 45.09849 | 55.23273 | 33949 ft | 445 kts | 243° |
| 2026-05-07 15:27 | 45.05723 | 55.14683 | 33921 ft | 446 kts | 230° |
| 2026-05-07 15:27 | 44.88629 | 54.92397 | 34010 ft | 444 kts | 224° |
| 2026-05-07 15:28 | 44.59514 | 54.50231 | 33960 ft | 441 kts | 236° |
| 2026-05-07 15:28 | 44.52091 | 54.35301 | 34741 ft | 442 kts | 235° |
| 2026-05-07 15:29 | 44.50344 | 54.31816 | 34866 ft | 441 kts | 235° |
| 2026-05-07 15:29 | 44.48585 | 54.28311 | 35104 ft | 438 kts | 235° |
| 2026-05-07 15:29 | 44.46823 | 54.24803 | 35339 ft | 438 kts | 235° |
| 2026-05-07 15:29 | 44.45069 | 54.21317 | 35581 ft | 437 kts | 235° |
| 2026-05-07 15:30 | 44.43315 | 54.17833 | 35823 ft | 437 kts | 235° |
| 2026-05-07 15:30 | 44.41583 | 54.14397 | 36030 ft | 438 kts | 235° |
| 2026-05-07 15:30 | 44.34515 | 54.00415 | 36083 ft | 447 kts | 235° |
| 2026-05-07 15:31 | 44.24032 | 53.79802 | 35888 ft | 429 kts | 235° |
| 2026-05-07 15:31 | 44.09771 | 53.50729 | 36110 ft | 451 kts | 236° |
| 2026-05-07 15:32 | 43.91120 | 53.13056 | 35992 ft | 431 kts | 236° |
| 2026-05-07 15:32 | 43.63450 | 52.58038 | 36126 ft | 444 kts | 235° |
| 2026-05-07 15:33 | 43.43249 | 52.18512 | 36045 ft | 445 kts | 235° |
| 2026-05-07 15:33 | 43.15046 | 51.64210 | 35991 ft | 428 kts | 234° |
| 2026-05-07 15:34 | 43.01081 | 51.37682 | 36114 ft | 432 kts | 234° |
| 2026-05-07 15:34 | 42.86940 | 51.11057 | 36155 ft | 443 kts | 234° |
| 2026-05-07 15:34 | 42.57529 | 50.56442 | 36022 ft | 439 kts | 234° |
| 2026-05-07 15:35 | 42.42505 | 50.28924 | 35965 ft | 428 kts | 234° |
| 2026-05-07 15:35 | 42.31550 | 50.09013 | 36039 ft | 438 kts | 234° |
| 2026-05-07 15:36 | 42.01936 | 49.55843 | 36055 ft | 442 kts | 233° |
| 2026-05-07 15:36 | 41.87110 | 49.29568 | 35995 ft | 429 kts | 233° |
| 2026-05-07 15:36 | 41.72980 | 49.04751 | 36012 ft | 421 kts | 233° |
| 2026-05-07 15:37 | 41.58661 | 48.79790 | 36125 ft | 424 kts | 233° |
| 2026-05-07 15:37 | 41.44078 | 48.54582 | 36175 ft | 434 kts | 233° |
| 2026-05-07 15:37 | 41.21673 | 48.16261 | 36141 ft | 434 kts | 233° |
| 2026-05-07 15:38 | 41.14380 | 48.03885 | 36090 ft | 425 kts | 233° |
| 2026-05-07 15:38 | 41.09625 | 47.91120 | 36156 ft | 424 kts | 253° |
| 2026-05-07 15:38 | 41.08665 | 47.85789 | 36101 ft | 432 kts | 255° |
| 2026-05-07 15:39 | 41.06975 | 47.75975 | 36136 ft | 438 kts | 255° |
| 2026-05-07 15:39 | 41.04285 | 47.60793 | 36078 ft | 443 kts | 254° |
| 2026-05-07 15:40 | 40.92834 | 46.97959 | 36024 ft | 431 kts | 254° |
| 2026-05-07 15:40 | 40.88072 | 46.62933 | 36114 ft | 438 kts | 260° |
| 2026-05-07 15:41 | 40.84542 | 46.25874 | 36158 ft | 443 kts | 259° |
| 2026-05-07 15:41 | 40.78134 | 45.62060 | 36117 ft | 436 kts | 259° |
| 2026-05-07 15:42 | 40.77366 | 45.38204 | 36219 ft | 449 kts | 270° |
| 2026-05-07 15:42 | 40.77671 | 45.32121 | 36219 ft | 453 kts | 270° |
| 2026-05-07 15:42 | 40.78331 | 45.18595 | 36167 ft | 460 kts | 270° |
| 2026-05-07 15:43 | 40.81020 | 44.53694 | 36192 ft | 452 kts | 270° |
| 2026-05-07 15:43 | 40.83391 | 43.87463 | 36243 ft | 456 kts | 270° |
| 2026-05-07 15:44 | 40.84122 | 43.65366 | 36261 ft | 465 kts | 271° |
| 2026-05-07 15:44 | 40.86187 | 43.29108 | 36157 ft | 469 kts | 272° |
| 2026-05-07 15:45 | 40.89609 | 42.61118 | 36124 ft | 457 kts | 272° |
| 2026-05-07 15:45 | 40.92067 | 42.06629 | 36262 ft | 468 kts | 272° |
| 2026-05-07 15:46 | 40.93162 | 41.80302 | 36203 ft | 477 kts | 272° |
| 2026-05-07 15:47 | 40.95777 | 41.10350 | 36127 ft | 474 kts | 272° |
| 2026-05-07 15:47 | 40.97917 | 40.41931 | 36187 ft | 471 kts | 272° |
| 2026-05-07 15:48 | 40.99611 | 39.77962 | 36217 ft | 472 kts | 276° |
| 2026-05-07 15:48 | 41.03941 | 39.32943 | 36259 ft | 480 kts | 278° |
| 2026-05-07 15:49 | 41.07474 | 38.94591 | 36196 ft | 485 kts | 278° |
| 2026-05-07 15:49 | 41.12334 | 38.38744 | 36081 ft | 473 kts | 278° |
| 2026-05-07 15:50 | 41.14557 | 38.11628 | 36135 ft | 470 kts | 278° |
| 2026-05-07 15:50 | 41.19746 | 37.44855 | 36202 ft | 484 kts | 277° |
| 2026-05-07 15:51 | 41.23646 | 36.93893 | 36066 ft | 470 kts | 278° |
| 2026-05-07 15:51 | 41.25822 | 36.65363 | 36179 ft | 463 kts | 278° |
| 2026-05-07 15:51 | 41.30032 | 36.41004 | 36208 ft | 461 kts | 291° |
| 2026-05-07 15:52 | 41.35324 | 36.20574 | 36265 ft | 466 kts | 291° |
| 2026-05-07 15:52 | 41.47629 | 35.71295 | 36152 ft | 466 kts | 291° |
| 2026-05-07 15:52 | 41.55648 | 35.38623 | 36046 ft | 455 kts | 291° |
| 2026-05-07 15:53 | 41.56993 | 35.33092 | 36119 ft | 453 kts | 291° |
| 2026-05-07 15:53 | 41.66167 | 34.95080 | 36203 ft | 463 kts | 290° |
| 2026-05-07 15:54 | 41.69475 | 34.81180 | 36165 ft | 463 kts | 290° |
| 2026-05-07 15:54 | 41.75122 | 34.57292 | 36157 ft | 447 kts | 290° |
| 2026-05-07 15:54 | 41.82551 | 34.25466 | 36147 ft | 447 kts | 290° |
| 2026-05-07 15:54 | 41.89983 | 33.93141 | 36241 ft | 458 kts | 290° |
| 2026-05-07 15:55 | 41.91706 | 33.85581 | 36212 ft | 462 kts | 290° |
| 2026-05-07 15:55 | 41.98371 | 33.54155 | 36181 ft | 460 kts | 287° |
| 2026-05-07 15:55 | 42.00596 | 33.42044 | 36127 ft | 447 kts | 288° |
| 2026-05-07 15:56 | 42.03881 | 33.24809 | 36081 ft | 441 kts | 288° |
| 2026-05-07 15:56 | 42.06668 | 33.10125 | 36246 ft | 454 kts | 288° |
| 2026-05-07 15:56 | 42.07688 | 33.04799 | 36144 ft | 460 kts | 288° |
| 2026-05-07 15:57 | 42.16533 | 32.61537 | 36174 ft | 456 kts | 289° |
| 2026-05-07 15:57 | 42.29115 | 31.98027 | 36129 ft | 455 kts | 288° |
| 2026-05-07 15:58 | 42.41807 | 31.31641 | 36121 ft | 453 kts | 287° |
| 2026-05-07 15:58 | 42.53762 | 30.67093 | 36134 ft | 450 kts | 287° |
| 2026-05-07 15:59 | 42.65941 | 30.17568 | 36109 ft | 437 kts | 308° |
| 2026-05-07 15:59 | 42.95660 | 29.65056 | 36137 ft | 437 kts | 308° |
| 2026-05-07 16:00 | 43.24846 | 29.12248 | 36121 ft | 439 kts | 308° |
| 2026-05-07 16:00 | 43.54165 | 28.58230 | 36115 ft | 441 kts | 307° |
| 2026-05-07 16:01 | 43.83262 | 28.03572 | 36102 ft | 445 kts | 306° |
| 2026-05-07 16:01 | 44.12505 | 27.47660 | 36075 ft | 448 kts | 304° |
| 2026-05-07 16:02 | 44.41604 | 26.90888 | 36031 ft | 449 kts | 303° |
| 2026-05-07 16:02 | 44.65397 | 26.37958 | 36088 ft | 446 kts | 293° |
| 2026-05-07 16:03 | 44.86642 | 25.74046 | 36041 ft | 452 kts | 293° |
| 2026-05-07 16:03 | 45.07599 | 25.09597 | 36055 ft | 455 kts | 292° |
| 2026-05-07 16:04 | 45.28490 | 24.43855 | 36078 ft | 458 kts | 290° |
| 2026-05-07 16:04 | 45.46946 | 23.84214 | 36042 ft | 462 kts | 292° |
| 2026-05-07 16:05 | 45.50314 | 23.73176 | 36115 ft | 453 kts | 290° |
| 2026-05-07 16:05 | 45.67033 | 23.17745 | 36117 ft | 453 kts | 289° |
| 2026-05-07 16:06 | 45.75928 | 22.87715 | 36066 ft | 464 kts | 289° |
| 2026-05-07 16:06 | 45.89770 | 22.40295 | 36042 ft | 462 kts | 288° |
| 2026-05-07 16:07 | 46.09208 | 21.72130 | 36036 ft | 464 kts | 288° |
| 2026-05-07 16:07 | 46.27126 | 21.07777 | 36015 ft | 468 kts | 289° |
| 2026-05-07 16:08 | 46.35680 | 20.81785 | 36112 ft | 466 kts | 291° |
| 2026-05-07 16:08 | 46.46998 | 20.46645 | 36042 ft | 464 kts | 290° |
| 2026-05-07 16:09 | 46.60295 | 20.04741 | 35959 ft | 458 kts | 290° |
| 2026-05-07 16:09 | 46.80839 | 19.38615 | 36037 ft | 454 kts | 289° |
| 2026-05-07 16:10 | 47.01066 | 18.71181 | 36039 ft | 455 kts | 288° |
| 2026-05-07 16:10 | 47.21084 | 18.02535 | 36015 ft | 458 kts | 287° |
| 2026-05-07 16:11 | 47.40816 | 17.32945 | 35966 ft | 459 kts | 286° |
| 2026-05-07 16:11 | 47.60041 | 16.63961 | 35993 ft | 467 kts | 289° |
| 2026-05-07 16:12 | 47.75984 | 16.12636 | 36559 ft | 470 kts | 289° |
| 2026-05-07 16:12 | 47.77319 | 16.08207 | 36948 ft | 467 kts | 289° |
| 2026-05-07 16:12 | 47.78656 | 16.03794 | 37343 ft | 465 kts | 290° |
| 2026-05-07 16:12 | 47.79986 | 15.99406 | 37707 ft | 463 kts | 290° |
| 2026-05-07 16:13 | 47.81298 | 15.95065 | 37898 ft | 463 kts | 290° |
| 2026-05-07 16:13 | 47.89058 | 15.69181 | 38087 ft | 470 kts | 290° |
| 2026-05-07 16:13 | 47.91610 | 15.60610 | 37942 ft | 466 kts | 290° |